sensor_id;sensor_type;location;lat;lon;timestamp;P1;durP1;ratioP1;P2;durP2;ratioP2
38783;SDS011;24531;45.502;12.238;2023-06-26T00:01:39;5.65;;;4.20;;
38783;SDS011;24531;45.502;12.238;2023-06-26T00:04:05;8.43;;;3.85;;
38783;SDS011;24531;45.502;12.238;2023-06-26T00:55:44;10.88;;;4.72;;
38783;SDS011;24531;45.502;12.238;2023-06-26T00:58:13;7.95;;;4.82;;
38783;SDS011;24531;45.502;12.238;2023-06-26T01:00:41;9.85;;;5.03;;
38783;SDS011;24531;45.502;12.238;2023-06-26T01:03:10;6.47;;;4.88;;
38783;SDS011;24531;45.502;12.238;2023-06-26T02:16:07;8.88;;;4.75;;
38783;SDS011;24531;45.502;12.238;2023-06-26T02:18:35;7.40;;;4.57;;
38783;SDS011;24531;45.502;12.238;2023-06-26T02:21:03;6.22;;;4.20;;
38783;SDS011;24531;45.502;12.238;2023-06-26T02:23:29;8.70;;;4.80;;
38783;SDS011;24531;45.502;12.238;2023-06-26T03:10:21;8.30;;;4.63;;
38783;SDS011;24531;45.502;12.238;2023-06-26T03:12:47;7.05;;;4.65;;
38783;SDS011;24531;45.502;12.238;2023-06-26T03:15:12;6.85;;;4.72;;
38783;SDS011;24531;45.502;12.238;2023-06-26T03:17:38;6.90;;;4.97;;
38783;SDS011;24531;45.502;12.238;2023-06-26T03:37:56;8.77;;;5.63;;
38783;SDS011;24531;45.502;12.238;2023-06-26T03:40:25;7.03;;;5.00;;
38783;SDS011;24531;45.502;12.238;2023-06-26T03:42:51;8.57;;;5.40;;
38783;SDS011;24531;45.502;12.238;2023-06-26T03:45:17;7.82;;;4.78;;
38783;SDS011;24531;45.502;12.238;2023-06-26T03:47:43;8.60;;;5.65;;
38783;SDS011;24531;45.502;12.238;2023-06-26T03:50:12;9.32;;;6.05;;
38783;SDS011;24531;45.502;12.238;2023-06-26T03:52:37;13.77;;;6.03;;
38783;SDS011;24531;45.502;12.238;2023-06-26T03:55:03;8.52;;;5.68;;
38783;SDS011;24531;45.502;12.238;2023-06-26T05:00:40;9.30;;;6.47;;
38783;SDS011;24531;45.502;12.238;2023-06-26T05:03:08;14.25;;;6.70;;
38783;SDS011;24531;45.502;12.238;2023-06-26T05:05:37;9.10;;;6.40;;
38783;SDS011;24531;45.502;12.238;2023-06-26T05:08:16;9.30;;;5.85;;
38783;SDS011;24531;45.502;12.238;2023-06-26T05:14:21;8.43;;;6.22;;
38783;SDS011;24531;45.502;12.238;2023-06-26T05:22:51;8.98;;;6.57;;
38783;SDS011;24531;45.502;12.238;2023-06-26T05:31:59;10.57;;;7.30;;
38783;SDS011;24531;45.502;12.238;2023-06-26T05:40:31;10.35;;;6.68;;
38783;SDS011;24531;45.502;12.238;2023-06-26T06:03:23;13.10;;;6.20;;
38783;SDS011;24531;45.502;12.238;2023-06-26T06:06:58;7.65;;;5.70;;
38783;SDS011;24531;45.502;12.238;2023-06-26T06:09:26;10.27;;;6.72;;
38783;SDS011;24531;45.502;12.238;2023-06-26T06:15:26;7.78;;;5.80;;
38783;SDS011;24531;45.502;12.238;2023-06-26T06:17:52;12.40;;;6.63;;
38783;SDS011;24531;45.502;12.238;2023-06-26T06:29:19;7.80;;;6.22;;
38783;SDS011;24531;45.502;12.238;2023-06-26T06:34:34;11.77;;;5.93;;
38783;SDS011;24531;45.502;12.238;2023-06-26T06:40:46;10.48;;;5.97;;
38783;SDS011;24531;45.502;12.238;2023-06-26T06:50:03;9.70;;;6.50;;
38783;SDS011;24531;45.502;12.238;2023-06-26T06:56:36;9.02;;;5.72;;
38783;SDS011;24531;45.502;12.238;2023-06-26T06:59:02;9.18;;;6.10;;
38783;SDS011;24531;45.502;12.238;2023-06-26T07:01:33;11.82;;;5.97;;
38783;SDS011;24531;45.502;12.238;2023-06-26T09:56:32;7.28;;;4.10;;
38783;SDS011;24531;45.502;12.238;2023-06-26T10:33:58;8.30;;;4.57;;
38783;SDS011;24531;45.502;12.238;2023-06-26T10:39:23;4.78;;;4.00;;
38783;SDS011;24531;45.502;12.238;2023-06-26T11:00:49;5.75;;;4.35;;
38783;SDS011;24531;45.502;12.238;2023-06-26T11:06:13;6.50;;;4.80;;
38783;SDS011;24531;45.502;12.238;2023-06-26T11:08:44;5.88;;;4.15;;
38783;SDS011;24531;45.502;12.238;2023-06-26T11:11:18;6.03;;;4.70;;
38783;SDS011;24531;45.502;12.238;2023-06-26T11:13:48;7.22;;;3.97;;
38783;SDS011;24531;45.502;12.238;2023-06-26T11:16:14;6.18;;;4.15;;
38783;SDS011;24531;45.502;12.238;2023-06-26T11:18:41;5.03;;;4.18;;
38783;SDS011;24531;45.502;12.238;2023-06-26T11:21:31;8.35;;;4.75;;
38783;SDS011;24531;45.502;12.238;2023-06-26T12:00:09;7.93;;;5.53;;
38783;SDS011;24531;45.502;12.238;2023-06-26T12:02:45;9.63;;;5.38;;
38783;SDS011;24531;45.502;12.238;2023-06-26T12:08:33;10.65;;;5.03;;
38783;SDS011;24531;45.502;12.238;2023-06-26T12:11:01;9.98;;;5.03;;
38783;SDS011;24531;45.502;12.238;2023-06-26T12:13:34;9.98;;;4.32;;
38783;SDS011;24531;45.502;12.238;2023-06-26T12:16:02;7.18;;;5.32;;
38783;SDS011;24531;45.502;12.238;2023-06-26T12:18:33;14.68;;;6.03;;
38783;SDS011;24531;45.502;12.238;2023-06-26T12:24:32;6.65;;;5.75;;
38783;SDS011;24531;45.502;12.238;2023-06-26T12:44:51;5.97;;;4.65;;
38783;SDS011;24531;45.502;12.238;2023-06-26T12:47:18;6.72;;;4.75;;
38783;SDS011;24531;45.502;12.238;2023-06-26T12:53:25;6.53;;;4.85;;
38783;SDS011;24531;45.502;12.238;2023-06-26T13:24:20;12.75;;;4.53;;
38783;SDS011;24531;45.502;12.238;2023-06-26T13:32:28;5.72;;;4.25;;
38783;SDS011;24531;45.502;12.238;2023-06-26T13:45:38;6.80;;;4.75;;
38783;SDS011;24531;45.502;12.238;2023-06-26T14:03:45;10.07;;;4.50;;
38783;SDS011;24531;45.502;12.238;2023-06-26T14:12:29;9.30;;;3.97;;
38783;SDS011;24531;45.502;12.238;2023-06-26T14:15:09;7.60;;;4.38;;
38783;SDS011;24531;45.502;12.238;2023-06-26T14:17:35;7.68;;;4.18;;
38783;SDS011;24531;45.502;12.238;2023-06-26T14:29:40;5.15;;;4.20;;
38783;SDS011;24531;45.502;12.238;2023-06-26T14:45:21;4.55;;;3.63;;
38783;SDS011;24531;45.502;12.238;2023-06-26T14:47:50;6.05;;;4.43;;
38783;SDS011;24531;45.502;12.238;2023-06-26T14:57:25;5.23;;;4.23;;
38783;SDS011;24531;45.502;12.238;2023-06-26T15:00:00;8.38;;;4.43;;
38783;SDS011;24531;45.502;12.238;2023-06-26T15:05:21;6.20;;;4.63;;
38783;SDS011;24531;45.502;12.238;2023-06-26T15:08:09;12.60;;;5.03;;
38783;SDS011;24531;45.502;12.238;2023-06-26T15:10:57;8.00;;;4.65;;
38783;SDS011;24531;45.502;12.238;2023-06-26T15:16:26;5.75;;;4.32;;
38783;SDS011;24531;45.502;12.238;2023-06-26T15:24:37;5.80;;;4.68;;
38783;SDS011;24531;45.502;12.238;2023-06-26T15:27:24;5.20;;;4.70;;
38783;SDS011;24531;45.502;12.238;2023-06-26T15:35:50;7.88;;;4.53;;
38783;SDS011;24531;45.502;12.238;2023-06-26T15:38:16;11.25;;;4.55;;
38783;SDS011;24531;45.502;12.238;2023-06-26T15:40:44;5.75;;;4.40;;
38783;SDS011;24531;45.502;12.238;2023-06-26T15:43:23;6.30;;;4.75;;
38783;SDS011;24531;45.502;12.238;2023-06-26T15:45:55;7.78;;;4.57;;
38783;SDS011;24531;45.502;12.238;2023-06-26T15:52:19;6.40;;;4.32;;
38783;SDS011;24531;45.502;12.238;2023-06-26T15:54:45;7.45;;;4.32;;
38783;SDS011;24531;45.502;12.238;2023-06-26T15:57:22;5.68;;;3.80;;
38783;SDS011;24531;45.502;12.238;2023-06-26T15:59:48;7.22;;;4.15;;
38783;SDS011;24531;45.502;12.238;2023-06-26T16:02:23;12.80;;;4.03;;
38783;SDS011;24531;45.502;12.238;2023-06-26T16:04:54;4.63;;;3.95;;
38783;SDS011;24531;45.502;12.238;2023-06-26T16:07:20;5.35;;;3.83;;
38783;SDS011;24531;45.502;12.238;2023-06-26T16:09:46;5.45;;;3.97;;
38783;SDS011;24531;45.502;12.238;2023-06-26T16:12:15;6.32;;;4.35;;
38783;SDS011;24531;45.502;12.238;2023-06-26T16:14:40;4.07;;;3.60;;
38783;SDS011;24531;45.502;12.238;2023-06-26T16:17:06;6.47;;;4.10;;
38783;SDS011;24531;45.502;12.238;2023-06-26T16:19:33;4.30;;;3.90;;
38783;SDS011;24531;45.502;12.238;2023-06-26T16:21:59;4.13;;;3.38;;
38783;SDS011;24531;45.502;12.238;2023-06-26T16:24:24;5.57;;;3.88;;
38783;SDS011;24531;45.502;12.238;2023-06-26T16:33:47;5.75;;;4.20;;
38783;SDS011;24531;45.502;12.238;2023-06-26T16:36:13;7.57;;;3.97;;
38783;SDS011;24531;45.502;12.238;2023-06-26T16:41:11;6.63;;;3.95;;
38783;SDS011;24531;45.502;12.238;2023-06-26T16:52:15;8.07;;;4.28;;
38783;SDS011;24531;45.502;12.238;2023-06-26T16:54:50;9.02;;;4.63;;
38783;SDS011;24531;45.502;12.238;2023-06-26T16:57:16;5.68;;;4.22;;
38783;SDS011;24531;45.502;12.238;2023-06-26T16:59:42;6.50;;;4.80;;
38783;SDS011;24531;45.502;12.238;2023-06-26T17:02:24;8.45;;;4.45;;
38783;SDS011;24531;45.502;12.238;2023-06-26T17:05:03;7.88;;;5.00;;
38783;SDS011;24531;45.502;12.238;2023-06-26T17:07:33;6.10;;;4.53;;
38783;SDS011;24531;45.502;12.238;2023-06-26T17:10:04;10.13;;;4.25;;
38783;SDS011;24531;45.502;12.238;2023-06-26T17:12:31;7.00;;;4.20;;
38783;SDS011;24531;45.502;12.238;2023-06-26T17:14:56;4.88;;;3.70;;
38783;SDS011;24531;45.502;12.238;2023-06-26T17:17:23;5.05;;;3.60;;
38783;SDS011;24531;45.502;12.238;2023-06-26T17:19:52;7.53;;;3.90;;
38783;SDS011;24531;45.502;12.238;2023-06-26T17:22:20;7.63;;;3.83;;
38783;SDS011;24531;45.502;12.238;2023-06-26T17:24:46;7.03;;;4.50;;
38783;SDS011;24531;45.502;12.238;2023-06-26T17:27:14;8.38;;;4.10;;
38783;SDS011;24531;45.502;12.238;2023-06-26T17:29:42;8.98;;;4.43;;
38783;SDS011;24531;45.502;12.238;2023-06-26T17:32:08;7.95;;;4.40;;
38783;SDS011;24531;45.502;12.238;2023-06-26T17:34:34;5.95;;;4.70;;
38783;SDS011;24531;45.502;12.238;2023-06-26T17:37:00;13.60;;;4.63;;
38783;SDS011;24531;45.502;12.238;2023-06-26T17:39:25;8.65;;;4.03;;
38783;SDS011;24531;45.502;12.238;2023-06-26T17:41:54;5.38;;;3.83;;
38783;SDS011;24531;45.502;12.238;2023-06-26T17:44:20;7.18;;;4.45;;
38783;SDS011;24531;45.502;12.238;2023-06-26T17:46:47;8.65;;;4.82;;
38783;SDS011;24531;45.502;12.238;2023-06-26T17:49:19;4.43;;;3.45;;
38783;SDS011;24531;45.502;12.238;2023-06-26T17:51:44;7.05;;;4.13;;
38783;SDS011;24531;45.502;12.238;2023-06-26T17:54:12;8.32;;;4.55;;
38783;SDS011;24531;45.502;12.238;2023-06-26T17:56:40;6.80;;;4.45;;
38783;SDS011;24531;45.502;12.238;2023-06-26T17:59:07;10.60;;;4.95;;
38783;SDS011;24531;45.502;12.238;2023-06-26T18:01:33;7.32;;;4.63;;
38783;SDS011;24531;45.502;12.238;2023-06-26T18:03:59;10.38;;;4.30;;
38783;SDS011;24531;45.502;12.238;2023-06-26T18:06:25;7.25;;;4.60;;
38783;SDS011;24531;45.502;12.238;2023-06-26T18:08:51;5.68;;;4.35;;
38783;SDS011;24531;45.502;12.238;2023-06-26T18:11:23;6.40;;;4.18;;
38783;SDS011;24531;45.502;12.238;2023-06-26T18:13:48;5.80;;;3.75;;
38783;SDS011;24531;45.502;12.238;2023-06-26T18:16:23;5.40;;;4.05;;
38783;SDS011;24531;45.502;12.238;2023-06-26T18:18:48;6.65;;;4.25;;
38783;SDS011;24531;45.502;12.238;2023-06-26T18:21:17;7.35;;;4.53;;
38783;SDS011;24531;45.502;12.238;2023-06-26T18:23:49;6.35;;;4.40;;
38783;SDS011;24531;45.502;12.238;2023-06-26T18:26:15;6.22;;;4.70;;
38783;SDS011;24531;45.502;12.238;2023-06-26T18:28:41;5.75;;;4.25;;
38783;SDS011;24531;45.502;12.238;2023-06-26T18:31:07;13.95;;;4.95;;
38783;SDS011;24531;45.502;12.238;2023-06-26T18:33:41;7.90;;;4.53;;
38783;SDS011;24531;45.502;12.238;2023-06-26T18:36:07;7.30;;;4.97;;
38783;SDS011;24531;45.502;12.238;2023-06-26T18:38:35;6.60;;;4.68;;
38783;SDS011;24531;45.502;12.238;2023-06-26T18:41:01;5.78;;;4.82;;
38783;SDS011;24531;45.502;12.238;2023-06-26T18:43:48;6.95;;;5.05;;
38783;SDS011;24531;45.502;12.238;2023-06-26T18:46:19;8.68;;;5.20;;
38783;SDS011;24531;45.502;12.238;2023-06-26T18:51:11;4.53;;;4.10;;
38783;SDS011;24531;45.502;12.238;2023-06-26T18:53:44;6.40;;;4.38;;
38783;SDS011;24531;45.502;12.238;2023-06-26T18:56:11;8.90;;;4.43;;
38783;SDS011;24531;45.502;12.238;2023-06-26T18:58:36;5.97;;;3.90;;
38783;SDS011;24531;45.502;12.238;2023-06-26T19:01:05;7.20;;;4.63;;
38783;SDS011;24531;45.502;12.238;2023-06-26T19:03:30;4.90;;;4.13;;
38783;SDS011;24531;45.502;12.238;2023-06-26T19:08:43;11.38;;;4.50;;
38783;SDS011;24531;45.502;12.238;2023-06-26T19:14:00;6.18;;;4.55;;
38783;SDS011;24531;45.502;12.238;2023-06-26T19:16:25;8.68;;;4.82;;
38783;SDS011;24531;45.502;12.238;2023-06-26T19:21:37;6.75;;;4.63;;
38783;SDS011;24531;45.502;12.238;2023-06-26T19:24:03;9.23;;;4.75;;
38783;SDS011;24531;45.502;12.238;2023-06-26T19:26:29;11.75;;;5.00;;
38783;SDS011;24531;45.502;12.238;2023-06-26T19:28:54;9.05;;;5.30;;
38783;SDS011;24531;45.502;12.238;2023-06-26T19:31:20;8.73;;;5.47;;
38783;SDS011;24531;45.502;12.238;2023-06-26T19:33:45;8.77;;;4.90;;
38783;SDS011;24531;45.502;12.238;2023-06-26T19:36:12;8.75;;;4.80;;
38783;SDS011;24531;45.502;12.238;2023-06-26T19:38:39;6.35;;;4.80;;
38783;SDS011;24531;45.502;12.238;2023-06-26T19:41:14;5.85;;;4.78;;
38783;SDS011;24531;45.502;12.238;2023-06-26T19:43:43;7.68;;;4.65;;
38783;SDS011;24531;45.502;12.238;2023-06-26T19:46:08;8.85;;;5.05;;
38783;SDS011;24531;45.502;12.238;2023-06-26T19:48:34;11.13;;;5.20;;
38783;SDS011;24531;45.502;12.238;2023-06-26T19:51:01;8.25;;;4.45;;
38783;SDS011;24531;45.502;12.238;2023-06-26T19:53:28;16.17;;;5.15;;
38783;SDS011;24531;45.502;12.238;2023-06-26T19:55:58;9.68;;;4.93;;
38783;SDS011;24531;45.502;12.238;2023-06-26T19:58:24;6.72;;;4.97;;
38783;SDS011;24531;45.502;12.238;2023-06-26T20:00:49;7.78;;;4.68;;
38783;SDS011;24531;45.502;12.238;2023-06-26T20:03:15;11.00;;;5.28;;
38783;SDS011;24531;45.502;12.238;2023-06-26T20:05:47;9.52;;;6.18;;
38783;SDS011;24531;45.502;12.238;2023-06-26T20:08:14;8.55;;;5.35;;
38783;SDS011;24531;45.502;12.238;2023-06-26T20:10:44;9.38;;;4.32;;
38783;SDS011;24531;45.502;12.238;2023-06-26T20:13:13;6.63;;;4.68;;
38783;SDS011;24531;45.502;12.238;2023-06-26T20:15:40;10.52;;;4.95;;
38783;SDS011;24531;45.502;12.238;2023-06-26T20:18:06;7.05;;;4.57;;
38783;SDS011;24531;45.502;12.238;2023-06-26T20:20:31;7.80;;;5.05;;
38783;SDS011;24531;45.502;12.238;2023-06-26T20:22:57;10.77;;;5.50;;
38783;SDS011;24531;45.502;12.238;2023-06-26T20:25:26;11.35;;;5.38;;
38783;SDS011;24531;45.502;12.238;2023-06-26T20:27:52;9.25;;;4.15;;
38783;SDS011;24531;45.502;12.238;2023-06-26T20:30:18;7.25;;;5.07;;
38783;SDS011;24531;45.502;12.238;2023-06-26T20:32:43;9.07;;;4.82;;
38783;SDS011;24531;45.502;12.238;2023-06-26T20:35:25;12.18;;;6.15;;
38783;SDS011;24531;45.502;12.238;2023-06-26T20:37:54;6.18;;;4.00;;
38783;SDS011;24531;45.502;12.238;2023-06-26T20:40:23;7.85;;;3.95;;
38783;SDS011;24531;45.502;12.238;2023-06-26T20:42:52;10.63;;;4.63;;
38783;SDS011;24531;45.502;12.238;2023-06-26T20:45:18;8.48;;;4.65;;
38783;SDS011;24531;45.502;12.238;2023-06-26T20:48:02;9.18;;;4.07;;
38783;SDS011;24531;45.502;12.238;2023-06-26T20:51:17;8.98;;;4.78;;
38783;SDS011;24531;45.502;12.238;2023-06-26T20:57:22;7.60;;;4.63;;
38783;SDS011;24531;45.502;12.238;2023-06-26T21:02:39;9.50;;;4.90;;
38783;SDS011;24531;45.502;12.238;2023-06-26T21:05:07;11.32;;;5.03;;
38783;SDS011;24531;45.502;12.238;2023-06-26T21:07:36;8.90;;;5.05;;
38783;SDS011;24531;45.502;12.238;2023-06-26T21:10:07;9.95;;;4.95;;
38783;SDS011;24531;45.502;12.238;2023-06-26T21:12:35;10.70;;;4.80;;
38783;SDS011;24531;45.502;12.238;2023-06-26T21:15:05;7.22;;;4.70;;
38783;SDS011;24531;45.502;12.238;2023-06-26T21:17:40;11.77;;;4.85;;
38783;SDS011;24531;45.502;12.238;2023-06-26T21:20:11;10.38;;;4.45;;
38783;SDS011;24531;45.502;12.238;2023-06-26T21:22:42;8.20;;;4.72;;
38783;SDS011;24531;45.502;12.238;2023-06-26T21:25:13;7.45;;;4.45;;
38783;SDS011;24531;45.502;12.238;2023-06-26T21:30:48;15.32;;;4.82;;
38783;SDS011;24531;45.502;12.238;2023-06-26T21:33:14;9.88;;;4.68;;
38783;SDS011;24531;45.502;12.238;2023-06-26T21:35:39;7.45;;;4.22;;
38783;SDS011;24531;45.502;12.238;2023-06-26T21:38:10;5.85;;;4.75;;
38783;SDS011;24531;45.502;12.238;2023-06-26T21:41:04;10.13;;;4.68;;
38783;SDS011;24531;45.502;12.238;2023-06-26T21:43:30;7.00;;;4.43;;
38783;SDS011;24531;45.502;12.238;2023-06-26T21:45:58;9.32;;;4.85;;
38783;SDS011;24531;45.502;12.238;2023-06-26T21:50:57;7.13;;;4.75;;
38783;SDS011;24531;45.502;12.238;2023-06-26T21:53:22;7.78;;;4.35;;
38783;SDS011;24531;45.502;12.238;2023-06-26T21:56:00;8.27;;;4.63;;
38783;SDS011;24531;45.502;12.238;2023-06-26T21:58:28;7.90;;;4.60;;
38783;SDS011;24531;45.502;12.238;2023-06-26T22:00:56;6.35;;;4.63;;
38783;SDS011;24531;45.502;12.238;2023-06-26T22:03:22;8.43;;;4.75;;
38783;SDS011;24531;45.502;12.238;2023-06-26T22:05:48;8.48;;;4.97;;
38783;SDS011;24531;45.502;12.238;2023-06-26T22:08:19;6.93;;;4.85;;
38783;SDS011;24531;45.502;12.238;2023-06-26T22:10:51;7.47;;;4.20;;
38783;SDS011;24531;45.502;12.238;2023-06-26T22:13:19;7.72;;;4.68;;
38783;SDS011;24531;45.502;12.238;2023-06-26T22:15:44;6.95;;;4.15;;
38783;SDS011;24531;45.502;12.238;2023-06-26T22:18:10;5.93;;;4.30;;
38783;SDS011;24531;45.502;12.238;2023-06-26T22:20:38;9.30;;;4.55;;
38783;SDS011;24531;45.502;12.238;2023-06-26T22:26:30;7.53;;;4.70;;
38783;SDS011;24531;45.502;12.238;2023-06-26T22:31:21;6.75;;;4.40;;
38783;SDS011;24531;45.502;12.238;2023-06-26T22:33:47;6.70;;;4.88;;
38783;SDS011;24531;45.502;12.238;2023-06-26T22:36:12;10.32;;;5.72;;
38783;SDS011;24531;45.502;12.238;2023-06-26T22:38:38;9.13;;;5.07;;
38783;SDS011;24531;45.502;12.238;2023-06-26T22:44:06;12.32;;;6.05;;
38783;SDS011;24531;45.502;12.238;2023-06-26T22:46:32;7.95;;;5.70;;
38783;SDS011;24531;45.502;12.238;2023-06-26T22:48:58;11.18;;;5.00;;
38783;SDS011;24531;45.502;12.238;2023-06-26T22:51:25;9.02;;;6.10;;
38783;SDS011;24531;45.502;12.238;2023-06-26T22:53:51;9.18;;;6.13;;
38783;SDS011;24531;45.502;12.238;2023-06-26T22:56:17;9.90;;;5.40;;
38783;SDS011;24531;45.502;12.238;2023-06-26T22:58:45;9.63;;;5.32;;
38783;SDS011;24531;45.502;12.238;2023-06-26T23:01:14;10.38;;;6.25;;
38783;SDS011;24531;45.502;12.238;2023-06-26T23:03:40;9.02;;;5.05;;
38783;SDS011;24531;45.502;12.238;2023-06-26T23:06:05;10.43;;;5.75;;
38783;SDS011;24531;45.502;12.238;2023-06-26T23:08:34;10.27;;;5.38;;
38783;SDS011;24531;45.502;12.238;2023-06-26T23:11:00;10.88;;;5.38;;
38783;SDS011;24531;45.502;12.238;2023-06-26T23:13:27;7.85;;;5.88;;
38783;SDS011;24531;45.502;12.238;2023-06-26T23:15:52;10.15;;;5.75;;
38783;SDS011;24531;45.502;12.238;2023-06-26T23:18:18;13.68;;;6.45;;
38783;SDS011;24531;45.502;12.238;2023-06-26T23:20:44;8.73;;;5.30;;
38783;SDS011;24531;45.502;12.238;2023-06-26T23:23:11;8.18;;;5.75;;
38783;SDS011;24531;45.502;12.238;2023-06-26T23:25:40;7.32;;;5.28;;
38783;SDS011;24531;45.502;12.238;2023-06-26T23:28:05;8.65;;;5.82;;
38783;SDS011;24531;45.502;12.238;2023-06-26T23:30:31;7.28;;;5.55;;
38783;SDS011;24531;45.502;12.238;2023-06-26T23:33:01;8.43;;;5.15;;
38783;SDS011;24531;45.502;12.238;2023-06-26T23:35:30;8.35;;;5.95;;
38783;SDS011;24531;45.502;12.238;2023-06-26T23:37:56;8.63;;;5.78;;
38783;SDS011;24531;45.502;12.238;2023-06-26T23:40:26;7.72;;;5.32;;
38783;SDS011;24531;45.502;12.238;2023-06-26T23:42:52;10.13;;;5.80;;
38783;SDS011;24531;45.502;12.238;2023-06-26T23:45:18;11.23;;;6.10;;
38783;SDS011;24531;45.502;12.238;2023-06-26T23:47:46;7.57;;;5.55;;
38783;SDS011;24531;45.502;12.238;2023-06-26T23:50:15;9.18;;;6.35;;
38783;SDS011;24531;45.502;12.238;2023-06-26T23:52:41;8.90;;;6.50;;
38783;SDS011;24531;45.502;12.238;2023-06-26T23:55:09;7.32;;;5.95;;
38783;SDS011;24531;45.502;12.238;2023-06-26T23:58:15;8.85;;;6.43;;
